Time;durP1;ratioP1;P1;durP2;ratioP2;P2;SDS_P1;SDS_P2;PMS_P1;PMS_P2;Temp;Humidity;BMP_temperature;BMP_pressure;BME280_temperature;BME280_humidity;BME280_pressure;Samples;Min_cycle;Max_cycle;Signal;HPM_P1;HPM_P2
2022/03/03 00:00:10;;;;;;;20.58;8.32;;;-4.60;99.90;;;;;;5089335;28;20023;-55
2022/03/03 00:02:35;;;;;;;24.00;11.15;;;-4.60;99.90;;;;;;5087326;28;20042;-55
2022/03/03 00:05:02;;;;;;;21.02;8.90;;;-4.60;99.90;;;;;;5089357;28;20099;-56
2022/03/03 00:07:27;;;;;;;21.45;9.00;;;-4.60;99.90;;;;;;5086913;28;20044;-54
2022/03/03 00:09:53;;;;;;;23.80;9.20;;;-4.60;99.90;;;;;;5089316;28;20020;-50
2022/03/03 00:12:18;;;;;;;20.08;8.07;;;-4.50;99.90;;;;;;5089083;28;20119;-53
2022/03/03 00:14:45;;;;;;;19.77;8.85;;;-4.50;99.90;;;;;;5068057;28;20036;-51
2022/03/03 00:17:11;;;;;;;22.48;8.70;;;-4.50;99.90;;;;;;5088588;28;20059;-55
2022/03/03 00:19:37;;;;;;;19.95;8.95;;;-4.50;99.90;;;;;;5069076;28;20495;-53
2022/03/03 00:22:03;;;;;;;19.50;8.77;;;-4.50;99.90;;;;;;5088468;28;20024;-50
2022/03/03 00:24:28;;;;;;;17.15;7.97;;;-4.50;99.90;;;;;;5069872;28;20127;-51
2022/03/03 00:26:54;;;;;;;25.25;9.57;;;-4.40;99.90;;;;;;5080838;28;20040;-55
2022/03/03 00:29:19;;;;;;;27.35;9.93;;;-4.50;99.90;;;;;;5086984;28;20038;-52
2022/03/03 00:31:45;;;;;;;23.38;10.65;;;-4.50;99.90;;;;;;5089024;28;20081;-54
2022/03/03 00:34:10;;;;;;;21.45;9.82;;;-4.50;99.90;;;;;;5072517;28;20523;-54
2022/03/03 00:36:36;;;;;;;23.77;10.38;;;-4.60;99.90;;;;;;5088150;28;20024;-50
2022/03/03 00:39:03;;;;;;;22.02;10.10;;;-4.60;99.90;;;;;;5073949;28;20032;-50
2022/03/03 00:41:28;;;;;;;23.27;8.60;;;-4.60;99.90;;;;;;5088283;28;20039;-51
2022/03/03 00:43:54;;;;;;;18.30;8.40;;;-4.60;99.90;;;;;;5074711;28;20025;-49
2022/03/03 00:46:20;;;;;;;21.15;9.32;;;-4.60;99.90;;;;;;5088068;28;20036;-50
2022/03/03 00:48:45;;;;;;;18.60;7.03;;;-4.60;99.90;;;;;;5086704;28;20064;-54
2022/03/03 00:51:11;;;;;;;18.10;8.07;;;-4.70;99.90;;;;;;5088857;28;20330;-53
2022/03/03 00:53:37;;;;;;;17.02;7.60;;;-4.60;99.90;;;;;;5087525;28;20028;-54
2022/03/03 00:56:03;;;;;;;16.15;7.75;;;-4.60;99.90;;;;;;5092979;28;20025;-49
2022/03/03 00:58:29;;;;;;;20.42;8.98;;;-4.60;99.90;;;;;;5090623;28;20079;-56
2022/03/03 01:00:54;;;;;;;19.50;8.93;;;-4.60;99.90;;;;;;5092706;28;20136;-53
2022/03/03 01:03:20;;;;;;;19.27;8.88;;;-4.60;99.90;;;;;;5090607;28;20102;-51
2022/03/03 01:05:45;;;;;;;14.77;6.60;;;-4.60;99.90;;;;;;5092919;28;20028;-50
2022/03/03 01:08:12;;;;;;;18.08;8.18;;;-4.50;99.90;;;;;;5090555;28;20085;-50
2022/03/03 01:10:39;;;;;;;18.40;7.57;;;-4.40;99.90;;;;;;5092536;28;20107;-51
2022/03/03 01:13:05;;;;;;;19.00;9.48;;;-4.30;99.90;;;;;;5090556;28;20039;-49
2022/03/03 01:15:31;;;;;;;16.30;8.38;;;-4.30;99.90;;;;;;5092383;28;20016;-51
2022/03/03 01:17:56;;;;;;;20.60;9.02;;;-4.30;99.90;;;;;;5090402;28;20023;-54
2022/03/03 01:20:22;;;;;;;17.67;6.95;;;-4.20;99.90;;;;;;5092495;28;20549;-52
2022/03/03 01:22:47;;;;;;;15.85;7.43;;;-4.10;99.90;;;;;;5090033;28;20031;-52
2022/03/03 01:25:13;;;;;;;15.43;6.68;;;-4.00;99.90;;;;;;5092552;28;20816;-52
2022/03/03 01:27:39;;;;;;;21.33;8.55;;;-3.80;99.90;;;;;;5082686;28;20047;-52
2022/03/03 01:30:06;;;;;;;16.88;7.53;;;-3.70;99.90;;;;;;5092404;28;20016;-49
2022/03/03 01:32:32;;;;;;;15.77;7.85;;;-3.70;99.90;;;;;;5089773;28;20431;-52
2022/03/03 01:34:59;;;;;;;20.30;8.30;;;-3.60;99.90;;;;;;5092109;28;20048;-54
2022/03/03 01:37:25;;;;;;;14.95;6.38;;;-3.60;99.90;;;;;;5092215;28;20094;-49
2022/03/03 01:39:50;;;;;;;22.13;9.07;;;-3.60;99.90;;;;;;5089998;28;20039;-50
2022/03/03 01:42:17;;;;;;;21.60;8.63;;;-3.70;99.90;;;;;;5092142;28;20036;-52
2022/03/03 01:44:44;;;;;;;14.63;6.70;;;-3.80;99.90;;;;;;5070918;28;20029;-53
2022/03/03 01:47:21;;;;;;;14.70;6.80;;;-3.80;99.90;;;;;;5073456;28;20044;-49
2022/03/03 01:49:48;;;;;;;19.08;7.95;;;-3.90;99.90;;;;;;5070276;28;20025;-49
2022/03/03 01:52:13;;;;;;;15.20;8.13;;;-3.80;99.90;;;;;;5091336;28;20032;-54
2022/03/03 01:54:39;;;;;;;18.95;8.73;;;-3.90;99.90;;;;;;5071512;28;20039;-52
2022/03/03 01:57:08;;;;;;;18.17;7.13;;;-3.80;99.90;;;;;;5091049;28;20063;-49
2022/03/03 01:59:35;;;;;;;13.77;6.45;;;-3.80;99.90;;;;;;5072002;28;20028;-50
2022/03/03 02:02:02;;;;;;;14.00;6.22;;;-3.80;99.90;;;;;;5091046;28;20044;-49
2022/03/03 02:04:28;;;;;;;16.52;7.22;;;-3.70;99.90;;;;;;5072666;28;20119;-52
2022/03/03 02:06:53;;;;;;;15.63;6.68;;;-3.70;99.90;;;;;;5090338;28;20461;-50
2022/03/03 02:09:19;;;;;;;12.38;6.57;;;-3.60;99.90;;;;;;5073843;28;20078;-50
2022/03/03 02:11:47;;;;;;;15.10;7.03;;;-3.60;99.90;;;;;;5091016;28;20063;-55
2022/03/03 02:14:14;;;;;;;13.40;6.90;;;-3.50;99.90;;;;;;5074529;28;20559;-48
2022/03/03 02:16:40;;;;;;;16.80;7.38;;;-3.50;99.90;;;;;;5090505;28;20552;-53
2022/03/03 02:19:06;;;;;;;19.33;7.93;;;-3.40;99.90;;;;;;5075674;28;20039;-52
2022/03/03 02:21:32;;;;;;;22.15;9.20;;;-3.40;99.90;;;;;;5090486;28;20082;-49
2022/03/03 02:23:57;;;;;;;20.33;8.38;;;-3.50;99.90;;;;;;5076392;28;20056;-49
2022/03/03 02:26:24;;;;;;;14.18;6.95;;;-3.50;99.90;;;;;;5089925;28;20074;-53
2022/03/03 02:28:51;;;;;;;20.38;8.50;;;-3.50;99.90;;;;;;5082078;28;20084;-55
2022/03/03 02:31:18;;;;;;;18.92;7.85;;;-3.40;99.90;;;;;;5091037;28;20484;-54
2022/03/03 02:33:44;;;;;;;17.92;8.52;;;-3.40;99.90;;;;;;5088670;28;20036;-49
2022/03/03 02:36:21;;;;;;;15.55;6.97;;;-3.40;99.90;;;;;;5090951;28;20098;-51
2022/03/03 02:38:47;;;;;;;17.20;7.63;;;-3.30;99.90;;;;;;5070654;28;20109;-52
2022/03/03 02:41:13;;;;;;;18.45;8.68;;;-3.30;99.90;;;;;;5090754;28;20028;-51
2022/03/03 02:43:39;;;;;;;18.05;8.00;;;-3.20;99.90;;;;;;5088524;28;20411;-53
2022/03/03 02:46:08;;;;;;;19.92;8.68;;;-3.20;99.90;;;;;;5090611;28;20395;-52
2022/03/03 02:48:34;;;;;;;22.13;9.13;;;-3.20;99.90;;;;;;5088472;28;20028;-55
2022/03/03 02:50:59;;;;;;;14.80;6.72;;;-3.20;99.90;;;;;;5090436;28;20495;-53
2022/03/03 02:53:26;;;;;;;15.40;7.88;;;-3.20;99.90;;;;;;5088737;28;20024;-49
2022/03/03 02:55:52;;;;;;;21.73;9.27;;;-3.20;99.90;;;;;;5090585;28;20051;-51
2022/03/03 02:58:17;;;;;;;14.77;7.35;;;-3.30;99.90;;;;;;5088251;28;20024;-52
2022/03/03 03:00:43;;;;;;;15.40;8.27;;;-3.40;99.90;;;;;;5090617;28;20024;-51
2022/03/03 03:03:12;;;;;;;18.92;8.70;;;-3.40;99.90;;;;;;5088286;28;20331;-51
2022/03/03 03:05:38;;;;;;;22.08;8.43;;;-3.50;99.90;;;;;;5090406;28;20074;-51
2022/03/03 03:08:04;;;;;;;18.90;8.77;;;-3.50;99.90;;;;;;5088370;28;20523;-52
2022/03/03 03:10:30;;;;;;;24.42;9.77;;;-3.60;99.90;;;;;;5090270;28;20065;-52
2022/03/03 03:12:55;;;;;;;21.05;10.52;;;-3.60;99.90;;;;;;5088158;28;20039;-52
2022/03/03 03:15:21;;;;;;;18.48;8.38;;;-3.80;99.90;;;;;;5090100;28;20104;-52
2022/03/03 03:17:46;;;;;;;17.73;7.53;;;-3.80;99.90;;;;;;5087102;28;20071;-49
2022/03/03 03:20:12;;;;;;;20.02;8.93;;;-3.90;99.90;;;;;;5089989;28;20020;-52
2022/03/03 03:22:38;;;;;;;11.30;6.70;;;-4.00;99.90;;;;;;5087923;28;20024;-56
2022/03/03 03:25:07;;;;;;;20.42;8.73;;;-4.00;99.90;;;;;;5089910;28;20124;-53
2022/03/03 03:27:33;;;;;;;17.20;8.23;;;-4.10;99.90;;;;;;5080673;28;20090;-50
2022/03/03 03:29:59;;;;;;;16.45;7.55;;;-4.20;99.90;;;;;;5090054;28;20048;-52
2022/03/03 03:32:25;;;;;;;20.45;8.70;;;-4.20;99.90;;;;;;5089703;28;20579;-52
2022/03/03 03:34:50;;;;;;;14.75;6.53;;;-4.30;99.90;;;;;;5087727;28;20020;-52
2022/03/03 03:37:16;;;;;;;15.57;7.70;;;-4.30;99.90;;;;;;5089738;28;20044;-53
2022/03/03 03:39:42;;;;;;;18.55;8.27;;;-4.30;99.90;;;;;;5068728;28;20028;-53
2022/03/03 03:42:08;;;;;;;14.25;7.40;;;-4.30;99.90;;;;;;5089197;28;20074;-53
2022/03/03 03:44:34;;;;;;;17.38;7.65;;;-4.30;99.90;;;;;;5051702;28;20429;-52
2022/03/03 03:47:00;;;;;;;20.65;8.82;;;-4.20;99.90;;;;;;5088993;28;20065;-53
2022/03/03 03:49:25;;;;;;;18.90;8.57;;;-4.10;99.90;;;;;;5071069;28;20052;-51
2022/03/03 03:51:51;;;;;;;16.35;8.45;;;-4.00;99.90;;;;;;5088753;28;20032;-54
2022/03/03 03:54:16;;;;;;;19.02;8.10;;;-4.10;99.90;;;;;;5072336;28;20029;-52
2022/03/03 03:56:42;;;;;;;23.90;9.35;;;-4.00;99.90;;;;;;5088598;28;20073;-52
2022/03/03 03:59:07;;;;;;;23.35;9.52;;;-4.00;99.90;;;;;;5073306;28;20104;-49
2022/03/03 04:01:33;;;;;;;19.02;8.52;;;-4.10;99.90;;;;;;5088393;28;20038;-52
2022/03/03 04:03:58;;;;;;;19.85;9.23;;;-4.10;99.90;;;;;;5074740;28;20490;-51
2022/03/03 04:06:24;;;;;;;16.88;8.30;;;-4.10;99.90;;;;;;5088347;28;20426;-51
2022/03/03 04:08:49;;;;;;;22.40;9.45;;;-4.20;99.90;;;;;;5075546;28;20032;-53
2022/03/03 04:11:15;;;;;;;28.58;12.85;;;-4.10;99.90;;;;;;5088437;28;20035;-53
2022/03/03 04:13:40;;;;;;;19.23;9.52;;;-4.10;99.90;;;;;;5086861;28;20036;-49
2022/03/03 04:16:06;;;;;;;26.33;10.80;;;-4.10;99.90;;;;;;5089391;28;20016;-52
2022/03/03 04:18:32;;;;;;;21.17;8.77;;;-4.20;99.90;;;;;;5086983;28;20085;-49
2022/03/03 04:20:57;;;;;;;22.55;9.70;;;-4.30;99.90;;;;;;5088993;28;20028;-49
2022/03/03 04:23:23;;;;;;;24.92;9.93;;;-4.30;99.90;;;;;;5086697;28;20036;-54
2022/03/03 04:25:49;;;;;;;19.77;9.10;;;-4.40;99.90;;;;;;5088818;28;20455;-50
2022/03/03 04:28:14;;;;;;;21.48;8.45;;;-4.50;99.90;;;;;;5079473;28;20747;-53
2022/03/03 04:30:40;;;;;;;21.48;8.30;;;-4.60;99.90;;;;;;5088877;28;20016;-48
2022/03/03 04:33:05;;;;;;;21.88;9.27;;;-4.60;99.90;;;;;;5087032;28;20020;-53
2022/03/03 04:35:31;;;;;;;20.00;8.25;;;-4.80;99.90;;;;;;5088850;28;20141;-54
2022/03/03 04:37:57;;;;;;;29.50;12.77;;;-4.90;99.90;;;;;;5086822;28;20035;-51
2022/03/03 04:40:22;;;;;;;22.38;9.70;;;-4.90;99.90;;;;;;5088903;28;20023;-50
2022/03/03 04:42:49;;;;;;;26.50;10.80;;;-4.80;99.90;;;;;;5086791;28;20029;-49
2022/03/03 04:45:15;;;;;;;16.60;7.88;;;-4.90;99.90;;;;;;5088996;28;20032;-54
2022/03/03 04:47:41;;;;;;;16.95;8.43;;;-5.00;99.90;;;;;;5086410;28;20054;-50
2022/03/03 04:50:08;;;;;;;17.88;8.10;;;-5.00;99.90;;;;;;5089065;28;20024;-51
2022/03/03 04:52:33;;;;;;;16.80;7.60;;;-5.10;99.90;;;;;;5086514;28;20044;-52
2022/03/03 04:54:59;;;;;;;20.63;8.60;;;-5.10;99.90;;;;;;5088860;28;20394;-52
2022/03/03 04:57:24;;;;;;;21.13;8.90;;;-5.20;99.90;;;;;;5088652;28;20508;-50
2022/03/03 04:59:50;;;;;;;19.27;8.48;;;-5.30;99.90;;;;;;5086468;28;20024;-51
2022/03/03 05:02:15;;;;;;;21.38;9.70;;;-5.30;99.90;;;;;;5088624;28;20067;-49
2022/03/03 05:04:41;;;;;;;24.63;10.43;;;-5.40;99.90;;;;;;5067902;28;20233;-50
2022/03/03 05:07:06;;;;;;;15.60;6.55;;;-5.50;99.90;;;;;;5087916;28;20036;-67
2022/03/03 05:09:32;;;;;;;26.58;10.23;;;-5.50;99.90;;;;;;5069163;28;20078;-66
2022/03/03 05:11:59;;;;;;;19.17;7.88;;;-5.60;99.90;;;;;;5087880;28;20028;-67
2022/03/03 05:14:25;;;;;;;12.40;6.70;;;-5.60;99.90;;;;;;5070235;28;20473;-68
2022/03/03 05:16:50;;;;;;;15.45;7.03;;;-5.60;99.90;;;;;;5088121;28;20020;-67
2022/03/03 05:19:16;;;;;;;11.98;5.75;;;-5.60;99.90;;;;;;5071387;28;20029;-67
2022/03/03 05:21:41;;;;;;;16.60;7.10;;;-5.60;99.90;;;;;;5087542;28;20032;-67
2022/03/03 05:24:07;;;;;;;20.13;8.35;;;-5.60;99.90;;;;;;5072503;28;20041;-67
2022/03/03 05:26:32;;;;;;;21.52;9.77;;;-5.70;99.90;;;;;;5083643;28;20115;-66
2022/03/03 05:28:58;;;;;;;22.75;9.18;;;-5.80;99.90;;;;;;5086569;28;20028;-67
2022/03/03 05:31:24;;;;;;;18.42;7.25;;;-5.90;99.90;;;;;;5086154;28;20029;-67
2022/03/03 05:34:29;;;;;;;25.33;10.02;;;-5.90;99.90;;;;;;5088506;28;20498;-67
2022/03/03 05:37:55;;;;;;;19.95;7.55;;;-6.00;99.90;;;;;;5067064;28;20035;-67
2022/03/03 05:41:20;;;;;;;19.88;7.55;;;-6.00;99.90;;;;;;5048792;28;20037;-67
2022/03/03 05:44:45;;;;;;;17.73;6.72;;;-6.00;99.90;;;;;;5052113;28;20079;-67
2022/03/03 05:48:11;;;;;;;37.83;17.42;;;-6.10;99.90;;;;;;5070685;28;20045;-67
2022/03/03 05:51:36;;;;;;;22.27;11.20;;;-5.80;99.90;;;;;;5070268;28;20426;-67
2022/03/03 05:55:02;;;;;;;18.70;8.10;;;-5.70;99.90;;;;;;5064116;28;20036;-67
2022/03/03 05:58:27;;;;;;;28.15;11.40;;;-5.60;99.90;;;;;;5051321;28;20548;-67
2022/03/03 06:01:52;;;;;;;16.45;8.38;;;-5.60;99.90;;;;;;5084919;28;20040;-67
2022/03/03 06:05:18;;;;;;;18.25;7.18;;;-5.50;99.90;;;;;;5073738;28;20154;-66
2022/03/03 06:08:43;;;;;;;21.73;9.70;;;-5.50;99.90;;;;;;5080238;28;20052;-67
2022/03/03 06:12:08;;;;;;;17.52;7.63;;;-5.40;99.90;;;;;;5087932;28;20044;-67
2022/03/03 06:15:34;;;;;;;15.60;7.32;;;-5.40;99.90;;;;;;5066407;28;20499;-67
2022/03/03 06:18:59;;;;;;;14.55;6.57;;;-5.30;99.90;;;;;;5079816;28;20024;-68
2022/03/03 06:22:24;;;;;;;18.08;7.20;;;-5.30;99.90;;;;;;5079649;28;20032;-67
2022/03/03 06:25:50;;;;;;;19.17;8.77;;;-5.20;99.90;;;;;;5064059;28;20102;-67
2022/03/03 06:29:15;;;;;;;28.85;10.75;;;-5.00;99.90;;;;;;5070742;28;20068;-67
2022/03/03 06:32:40;;;;;;;35.78;16.50;;;-3.80;99.90;;;;;;5090968;28;20380;-67
2022/03/03 06:36:06;;;;;;;41.13;17.05;;;-1.90;99.90;;;;;;5081069;28;20040;-67
2022/03/03 06:39:31;;;;;;;37.92;17.20;;;-1.80;99.90;;;;;;5077819;28;20039;-68
2022/03/03 06:43:00;;;;;;;69.28;28.05;;;-2.10;99.90;;;;;;5090903;28;20068;-67
2022/03/03 06:46:22;;;;;;;51.00;19.38;;;-2.20;99.90;;;;;;5084943;28;20036;-67
2022/03/03 06:49:48;;;;;;;49.85;19.38;;;-2.20;99.90;;;;;;5077636;28;20063;-67
2022/03/03 06:53:13;;;;;;;54.80;22.95;;;-2.10;99.90;;;;;;5049975;28;20211;-67
2022/03/03 06:56:38;;;;;;;68.70;25.63;;;-2.00;99.90;;;;;;5084624;28;20492;-67
2022/03/03 07:00:04;;;;;;;56.42;21.65;;;-1.90;99.90;;;;;;5081778;28;20036;-67
2022/03/03 07:03:29;;;;;;;67.28;25.33;;;-1.70;99.90;;;;;;5050068;28;20094;-67
2022/03/03 07:06:54;;;;;;;65.72;23.95;;;-1.60;99.90;;;;;;5048596;28;20064;-65
2022/03/03 07:10:24;;;;;;;48.00;18.77;;;-1.40;99.90;;;;;;5066404;28;20044;-66
2022/03/03 07:13:45;;;;;;;61.47;22.52;;;-1.30;99.90;;;;;;5083609;28;20492;-66
2022/03/03 07:16:56;;;;;;;49.45;20.02;;;-1.20;99.90;;;;;;5072436;28;20041;-67
2022/03/03 07:20:24;;;;;;;50.08;19.05;;;-1.00;99.90;;;;;;5060338;28;20075;-67
2022/03/03 07:23:33;;;;;;;;;;;-0.90;99.90;;;;;;5077839;28;20080;-66
2022/03/03 07:26:38;;;;;;;;;;;-0.80;99.90;;;;;;5088904;28;20359;-65
2022/03/03 07:30:05;;;;;;;44.17;16.98;;;-0.70;99.90;;;;;;5079324;28;19969;-65
2022/03/03 07:33:54;;;;;;;54.40;19.13;;;-0.50;99.90;;;;;;5076931;28;20032;-67
2022/03/03 07:37:25;;;;;;;49.25;18.40;;;-0.40;99.90;;;;;;5069229;28;20036;-65
2022/03/03 07:40:50;;;;;;;47.08;20.25;;;-0.20;99.90;;;;;;5061572;28;20029;-66
2022/03/03 07:44:15;;;;;;;56.47;21.52;;;-0.10;99.90;;;;;;5075477;28;20042;-65
2022/03/03 07:47:41;;;;;;;56.30;24.38;;;0.00;99.90;;;;;;5088219;28;20048;-66
2022/03/03 07:51:06;;;;;;;53.30;20.92;;;0.00;99.90;;;;;;5078556;28;20028;-66
2022/03/03 07:54:32;;;;;;;51.67;21.63;;;0.10;99.90;;;;;;5075026;28;20035;-67
2022/03/03 07:58:00;;;;;;;41.65;17.17;;;0.10;99.90;;;;;;5088148;28;20040;-66
2022/03/03 08:01:08;;;;;;;;;;;0.10;99.90;;;;;;5084308;28;20028;-67
2022/03/03 08:04:34;;;;;;;55.88;24.23;;;0.10;99.90;;;;;;5052260;28;19912;-66
2022/03/03 08:08:02;;;;;;;39.50;18.08;;;0.20;99.90;;;;;;5047742;28;20048;-66
2022/03/03 08:11:27;;;;;;;39.03;16.27;;;0.20;99.90;;;;;;5084064;28;20652;-66
2022/03/03 08:14:53;;;;;;;42.00;17.33;;;0.20;99.90;;;;;;5080772;28;20036;-67
2022/03/03 08:18:18;;;;;;;41.85;14.82;;;0.30;99.90;;;;;;5076857;28;20036;-66
2022/03/03 08:21:43;;;;;;;38.88;16.80;;;0.40;99.90;;;;;;5076892;28;20036;-66
2022/03/03 08:25:09;;;;;;;41.70;17.95;;;0.40;99.90;;;;;;5070254;28;20048;-64
2022/03/03 08:28:34;;;;;;;42.47;18.90;;;0.40;99.90;;;;;;5080398;28;20104;-66
2022/03/03 08:32:00;;;;;;;49.55;21.58;;;0.40;99.90;;;;;;5047589;28;20033;-65
2022/03/03 08:35:40;;;;;;;48.45;22.63;;;0.50;99.90;;;;;;5066528;28;20035;-65
2022/03/03 08:38:57;;;;;;;38.03;17.05;;;0.50;99.90;;;;;;5086249;28;20036;-66
2022/03/03 08:42:26;;;;;;;37.75;17.52;;;0.50;99.90;;;;;;5087618;28;20040;-66
2022/03/03 08:45:48;;;;;;;35.60;15.98;;;0.70;99.90;;;;;;5067236;28;20124;-67
2022/03/03 08:49:14;;;;;;;31.67;14.48;;;0.90;99.90;;;;;;5074474;28;20051;-66
2022/03/03 08:52:39;;;;;;;30.90;12.95;;;0.90;99.90;;;;;;5087807;28;20067;-68
2022/03/03 08:56:04;;;;;;;32.17;14.18;;;1.10;99.90;;;;;;5076950;28;20032;-67
2022/03/03 08:59:30;;;;;;;30.02;13.18;;;1.20;99.90;;;;;;5046773;28;20076;-68
2022/03/03 09:02:55;;;;;;;30.40;12.63;;;1.40;99.90;;;;;;5060829;28;20040;-68
2022/03/03 09:06:20;;;;;;;34.70;14.43;;;1.50;99.90;;;;;;5081590;28;20050;-67
2022/03/03 09:09:46;;;;;;;31.65;12.88;;;1.60;99.90;;;;;;5076477;28;20048;-70
2022/03/03 09:13:11;;;;;;;28.73;10.70;;;1.70;99.90;;;;;;5059998;28;20514;-67
2022/03/03 09:16:36;;;;;;;36.95;15.52;;;1.90;99.90;;;;;;5076738;28;20039;-66
2022/03/03 09:20:02;;;;;;;29.08;13.60;;;1.90;99.90;;;;;;5051087;28;20029;-68
2022/03/03 09:23:27;;;;;;;38.67;17.05;;;1.90;99.90;;;;;;5081910;28;20064;-66
2022/03/03 09:26:54;;;;;;;35.80;15.95;;;1.80;99.90;;;;;;5088900;28;20043;-60
2022/03/03 09:30:18;;;;;;;37.00;15.02;;;1.80;99.90;;;;;;5050662;28;20496;-66
2022/03/03 09:33:43;;;;;;;32.75;15.00;;;1.90;99.90;;;;;;5082416;28;20280;-67
2022/03/03 09:37:09;;;;;;;37.13;15.35;;;1.90;99.90;;;;;;5083696;28;20032;-67
2022/03/03 09:40:34;;;;;;;33.08;14.30;;;1.90;99.90;;;;;;5063443;28;20040;-67
2022/03/03 09:43:59;;;;;;;33.03;14.80;;;2.00;99.90;;;;;;5073806;28;20047;-68
2022/03/03 09:47:25;;;;;;;42.83;18.70;;;2.10;99.90;;;;;;5085276;28;20112;-69
2022/03/03 09:50:50;;;;;;;36.45;14.85;;;2.10;99.90;;;;;;5084093;28;20036;-68
2022/03/03 09:54:15;;;;;;;36.88;15.82;;;2.10;99.90;;;;;;5079745;28;20127;-68
2022/03/03 09:57:41;;;;;;;32.08;13.93;;;2.20;99.90;;;;;;5066983;28;20059;-69
2022/03/03 10:01:06;;;;;;;37.45;15.85;;;2.30;99.90;;;;;;5050435;28;20047;-68
2022/03/03 10:04:40;;;;;;;31.58;13.27;;;2.20;99.90;;;;;;5079185;28;20377;-68
2022/03/03 10:08:12;;;;;;;28.65;13.18;;;2.30;99.90;;;;;;5068651;28;20131;-70
2022/03/03 10:11:38;;;;;;;32.45;13.25;;;2.30;99.90;;;;;;5077277;28;20036;-69
2022/03/03 10:15:06;;;;;;;51.58;19.08;;;2.40;99.90;;;;;;5090122;28;20514;-68
2022/03/03 10:18:14;;;;;;;;;;;2.40;99.90;;;;;;5084206;28;20496;-69
2022/03/03 10:21:23;;;;;;;39.97;17.20;;;2.40;99.90;;;;;;5080247;28;19912;-70
2022/03/03 10:23:49;;;;;;;32.22;14.27;;;2.50;99.90;;;;;;5050217;28;20052;-71
2022/03/03 10:26:57;;;;;;;38.80;17.48;;;2.50;99.90;;;;;;5090124;28;20073;-70
2022/03/03 10:30:22;;;;;;;34.05;14.48;;;2.50;99.90;;;;;;5089426;28;20044;-70
2022/03/03 10:33:54;;;;;;;33.45;15.10;;;2.50;99.90;;;;;;5076646;28;20036;-70
2022/03/03 10:37:02;;;;;;;34.75;13.85;;;2.50;99.90;;;;;;5077020;28;20036;-71
2022/03/03 10:40:31;;;;;;;32.67;13.40;;;2.50;99.90;;;;;;5090044;28;20067;-70
2022/03/03 10:43:36;;;;;;;;;;;2.60;99.90;;;;;;5069971;28;20025;-70
2022/03/03 10:47:21;;;;;;;31.35;12.82;;;2.60;99.90;;;;;;5050433;28;19962;-70
2022/03/03 10:50:45;;;;;;;41.20;17.10;;;2.60;99.90;;;;;;5087036;28;20039;-70
2022/03/03 10:54:16;;;;;;;50.58;19.55;;;2.60;99.90;;;;;;5084126;28;20044;-70
2022/03/03 10:57:59;;;;;;;36.67;15.50;;;2.60;99.90;;;;;;5077405;28;20029;-70
2022/03/03 11:01:22;;;;;;;34.75;14.75;;;2.60;99.90;;;;;;5078576;28;20028;-70
2022/03/03 11:04:48;;;;;;;34.08;15.82;;;2.70;99.90;;;;;;5084400;28;20461;-70
2022/03/03 11:07:33;;;;;;;30.45;13.35;;;2.80;99.90;;;;;;5084632;28;20166;-59
2022/03/03 11:09:59;;;;;;;31.08;14.20;;;2.80;99.90;;;;;;5090496;28;20458;-60
2022/03/03 11:12:27;;;;;;;26.73;11.80;;;2.90;99.90;;;;;;5088124;28;20035;-60
2022/03/03 11:14:55;;;;;;;37.47;17.20;;;2.90;99.90;;;;;;5090115;28;20082;-59
2022/03/03 11:17:20;;;;;;;35.03;16.67;;;2.90;99.90;;;;;;5088143;28;20532;-59
2022/03/03 11:19:47;;;;;;;34.08;15.40;;;3.00;99.90;;;;;;5090133;28;20032;-60
2022/03/03 11:22:16;;;;;;;37.75;15.25;;;3.00;99.90;;;;;;5088214;28;20032;-60
2022/03/03 11:24:42;;;;;;;31.95;13.48;;;3.00;99.90;;;;;;5089897;28;20042;-60
2022/03/03 11:27:08;;;;;;;31.77;13.43;;;3.00;99.90;;;;;;5074521;28;20450;-60
2022/03/03 11:29:38;;;;;;;32.17;12.75;;;3.00;99.90;;;;;;5089363;28;20028;-60
2022/03/03 11:32:09;;;;;;;32.97;13.32;;;3.00;99.90;;;;;;5087797;28;20035;-60
2022/03/03 11:34:35;;;;;;;28.75;12.93;;;3.00;99.90;;;;;;5089830;28;20020;-59
2022/03/03 11:37:07;;;;;;;23.48;10.60;;;2.90;99.90;;;;;;5087708;28;20098;-60
2022/03/03 11:39:57;;;;;;;32.22;11.98;;;2.90;99.90;;;;;;5088851;28;20039;-60
2022/03/03 11:42:28;;;;;;;35.15;14.15;;;2.90;99.90;;;;;;5064107;28;20349;-61
2022/03/03 11:45:07;;;;;;;27.02;12.80;;;2.90;99.90;;;;;;5049557;28;20116;-59
2022/03/03 11:47:35;;;;;;;31.70;12.98;;;2.90;99.90;;;;;;5066726;28;20583;-60
2022/03/03 11:50:09;;;;;;;26.27;11.57;;;2.90;99.90;;;;;;5089481;28;20026;-60
2022/03/03 11:52:35;;;;;;;30.85;13.20;;;2.80;99.90;;;;;;5067130;28;20114;-59
2022/03/03 11:55:32;;;;;;;21.67;10.73;;;2.70;99.90;;;;;;5089282;28;20270;-60
2022/03/03 11:58:04;;;;;;;28.33;11.25;;;2.60;99.90;;;;;;5074175;28;20492;-59
2022/03/03 12:00:32;;;;;;;23.65;10.60;;;2.60;99.90;;;;;;5089329;28;20039;-60
2022/03/03 12:03:07;;;;;;;25.48;11.50;;;2.70;99.90;;;;;;5074146;28;20029;-59
2022/03/03 12:05:46;;;;;;;21.33;9.23;;;2.70;99.90;;;;;;5049333;28;20278;-60
2022/03/03 12:08:12;;;;;;;21.27;10.05;;;2.70;99.90;;;;;;5062230;28;20037;-60
2022/03/03 12:10:57;;;;;;;25.80;10.90;;;2.70;99.90;;;;;;5088575;28;20077;-60
2022/03/03 12:13:37;;;;;;;28.45;12.45;;;2.80;99.90;;;;;;5063706;28;20032;-60
2022/03/03 12:16:25;;;;;;;17.83;8.23;;;2.80;99.90;;;;;;5049018;28;20451;-60
2022/03/03 12:18:56;;;;;;;17.98;7.60;;;2.80;99.90;;;;;;5048981;28;20029;-60
2022/03/03 12:21:26;;;;;;;19.83;7.78;;;2.90;99.90;;;;;;5088608;28;20115;-59
2022/03/03 12:24:27;;;;;;;21.73;9.05;;;3.00;99.90;;;;;;5088569;28;20515;-59
2022/03/03 12:26:56;;;;;;;23.33;10.32;;;3.00;99.90;;;;;;5048646;28;20111;-59
2022/03/03 12:29:37;;;;;;;27.23;10.38;;;3.00;99.90;;;;;;5068976;28;20017;-60
2022/03/03 12:32:24;;;;;;;24.13;9.95;;;3.00;99.90;;;;;;5086232;28;20089;-59
2022/03/03 12:34:51;;;;;;;27.08;10.30;;;3.10;99.90;;;;;;5088550;28;20035;-58
2022/03/03 12:37:17;;;;;;;22.75;10.45;;;3.10;99.90;;;;;;5086911;28;20100;-60
2022/03/03 12:39:49;;;;;;;21.42;9.57;;;3.00;99.90;;;;;;5088601;28;20070;-59
2022/03/03 12:42:20;;;;;;;24.77;10.18;;;3.00;99.90;;;;;;5086559;28;20028;-59
2022/03/03 12:44:54;;;;;;;21.52;10.35;;;2.90;99.90;;;;;;5088535;28;20035;-59
2022/03/03 12:47:44;;;;;;;25.73;11.52;;;3.00;99.90;;;;;;5062345;28;20348;-59
2022/03/03 12:50:19;;;;;;;26.52;11.35;;;3.00;99.90;;;;;;5050182;28;20411;-59
2022/03/03 12:52:59;;;;;;;27.98;11.25;;;3.00;99.90;;;;;;5090562;28;20073;-60
2022/03/03 12:55:33;;;;;;;24.83;10.25;;;3.00;99.90;;;;;;5092878;28;20483;-59
2022/03/03 12:58:00;;;;;;;24.27;10.93;;;3.10;99.90;;;;;;5064151;28;20415;-59
2022/03/03 13:00:26;;;;;;;25.77;10.70;;;3.10;99.90;;;;;;5092413;28;20024;-59
2022/03/03 13:02:55;;;;;;;29.13;11.45;;;3.10;99.90;;;;;;5078576;28;20081;-59
2022/03/03 13:05:59;;;;;;;26.52;10.77;;;3.10;99.90;;;;;;5092981;28;20036;-59
2022/03/03 13:08:32;;;;;;;31.92;12.88;;;3.20;99.90;;;;;;5008408;28;20101;-59
2022/03/03 13:10:59;;;;;;;37.97;13.80;;;3.20;99.90;;;;;;5046809;28;20047;-60
2022/03/03 13:13:25;;;;;;;26.35;12.75;;;3.10;99.90;;;;;;5072694;28;20123;-59
2022/03/03 13:15:51;;;;;;;26.90;12.93;;;3.20;99.90;;;;;;5091797;28;20103;-59
2022/03/03 13:18:23;;;;;;;27.88;10.93;;;3.30;99.90;;;;;;5074590;28;20024;-59
2022/03/03 13:20:55;;;;;;;26.73;12.88;;;3.30;99.90;;;;;;5092059;28;20076;-60
2022/03/03 13:23:21;;;;;;;27.92;12.38;;;3.30;99.90;;;;;;5078548;28;20063;-59
2022/03/03 13:26:03;;;;;;;24.65;10.18;;;3.30;99.90;;;;;;5092233;28;20518;-59
2022/03/03 13:28:28;;;;;;;31.85;12.00;;;3.30;99.90;;;;;;5060124;28;20043;-57
2022/03/03 13:30:55;;;;;;;24.42;11.93;;;3.40;99.90;;;;;;5089157;28;20638;-58
2022/03/03 13:33:40;;;;;;;28.73;12.88;;;3.40;99.90;;;;;;5079449;28;20032;-57
2022/03/03 13:36:36;;;;;;;21.70;10.65;;;3.50;99.90;;;;;;5060679;28;20016;-60
2022/03/03 13:39:05;;;;;;;27.08;10.95;;;3.50;99.90;;;;;;5091015;28;20036;-60
2022/03/03 13:41:36;;;;;;;25.02;10.45;;;3.50;99.90;;;;;;5089266;28;20066;-59
2022/03/03 13:44:18;;;;;;;19.95;9.57;;;3.50;99.90;;;;;;5051320;28;20037;-59
2022/03/03 13:46:58;;;;;;;29.88;12.90;;;3.50;99.90;;;;;;5089006;28;20138;-60
2022/03/03 13:50:09;;;;;;;22.00;9.82;;;3.60;99.90;;;;;;5090765;28;20115;-59
2022/03/03 13:53:35;;;;;;;21.35;10.20;;;3.60;99.90;;;;;;5079700;28;20032;-60
2022/03/03 13:57:00;;;;;;;25.05;10.18;;;3.60;99.90;;;;;;5069680;28;20082;-60
2022/03/03 14:00:47;;;;;;;25.77;10.45;;;3.70;99.90;;;;;;5087207;28;20577;-60
2022/03/03 14:04:12;;;;;;;20.95;8.82;;;3.60;99.90;;;;;;5076865;28;20410;-57
2022/03/03 14:07:46;;;;;;;23.13;9.40;;;3.60;99.90;;;;;;5079378;28;20071;-59
2022/03/03 14:11:21;;;;;;;20.23;8.98;;;3.60;99.90;;;;;;5084913;28;20495;-60
2022/03/03 14:14:46;;;;;;;24.65;9.23;;;3.60;99.90;;;;;;5068924;28;20090;-58
2022/03/03 14:18:12;;;;;;;20.75;8.13;;;3.70;99.90;;;;;;5082243;28;20223;-59
2022/03/03 14:21:39;;;;;;;30.20;11.43;;;3.80;99.90;;;;;;5050208;28;20037;-59
2022/03/03 14:25:02;;;;;;;25.02;10.85;;;3.90;99.90;;;;;;5084962;28;20055;-55